createdAt,value
2019-03-28T00:01:13.647Z,102453.56
2019-03-28T00:03:42.112Z,102449.46
2019-03-28T00:06:10.581Z,102455.00
2019-03-28T00:08:39.081Z,102453.37
2019-03-28T00:11:07.550Z,102453.38
2019-03-28T00:13:36.027Z,102458.02
2019-03-28T00:16:04.759Z,102452.85
2019-03-28T00:18:33.309Z,102451.67
2019-03-28T00:21:01.791Z,102447.87
2019-03-28T00:23:48.078Z,102450.30
2019-03-28T00:26:29.051Z,102448.52
2019-03-28T00:28:46.728Z,102446.73
2019-03-28T00:31:15.234Z,102441.14
2019-03-28T00:33:44.374Z,102447.34
2019-03-28T00:36:13.208Z,102443.77
2019-03-28T00:38:41.657Z,102437.65
2019-03-28T00:41:10.171Z,102439.13
2019-03-28T00:43:38.724Z,102444.52
2019-03-28T00:46:07.207Z,102445.25
2019-03-28T00:48:35.714Z,102442.63
2019-03-28T00:51:04.165Z,102442.09
2019-03-28T00:53:32.675Z,102450.84
2019-03-28T00:56:01.140Z,102441.80
2019-03-28T00:58:29.651Z,102443.46
2019-03-28T01:00:58.088Z,102449.23
2019-03-28T01:03:26.575Z,102442.74
2019-03-28T01:05:55.020Z,102447.03
2019-03-28T01:08:23.504Z,102449.39
2019-03-28T01:10:52.050Z,102445.13
2019-03-28T01:13:20.604Z,102444.37
2019-03-28T01:15:49.319Z,102441.86
2019-03-28T01:18:18.033Z,102443.81
2019-03-28T01:20:46.916Z,102446.92
2019-03-28T01:23:15.404Z,102442.44
2019-03-28T01:25:43.897Z,102443.66
2019-03-28T01:28:12.371Z,102441.72
2019-03-28T01:30:40.846Z,102447.98
2019-03-28T01:33:09.321Z,102447.80
2019-03-28T01:35:37.804Z,102444.34
2019-03-28T01:38:06.388Z,102440.13
2019-03-28T01:40:34.925Z,102442.63
2019-03-28T01:43:03.396Z,102441.45
2019-03-28T01:45:31.846Z,102446.43
2019-03-28T01:48:00.338Z,102439.47
2019-03-28T01:50:28.799Z,102442.97
2019-03-28T01:52:57.434Z,102439.66
2019-03-28T01:55:25.871Z,102442.93
2019-03-28T01:57:54.373Z,102441.91
2019-03-28T02:00:22.817Z,102441.60
2019-03-28T02:02:51.442Z,102448.03
2019-03-28T02:05:19.911Z,102441.86
2019-03-28T02:07:48.428Z,102443.66
2019-03-28T02:10:16.954Z,102445.55
2019-03-28T02:12:45.427Z,102442.63
2019-03-28T02:15:14.423Z,102451.25
2019-03-28T02:17:42.904Z,102447.80
2019-03-28T02:20:11.998Z,102453.57
2019-03-28T02:22:40.550Z,102450.42
2019-03-28T02:25:09.304Z,102443.39
2019-03-28T02:27:37.773Z,102453.80
2019-03-28T02:30:06.885Z,102452.97
2019-03-28T02:32:35.387Z,102456.08
2019-03-28T02:35:05.162Z,102457.37
2019-03-28T02:37:33.637Z,102458.02
2019-03-28T02:40:02.095Z,102453.34
2019-03-28T02:42:30.612Z,102463.38
2019-03-28T02:44:59.055Z,102455.47
2019-03-28T02:47:27.546Z,102454.10
2019-03-28T02:49:55.984Z,102461.78
2019-03-28T02:52:24.545Z,102459.98
2019-03-28T02:54:53.006Z,102456.53
2019-03-28T02:57:21.562Z,102461.13
2019-03-28T02:59:50.009Z,102463.10
2019-03-28T03:02:18.701Z,102460.59
2019-03-28T03:04:47.174Z,102459.77
2019-03-28T03:07:15.656Z,102461.36
2019-03-28T03:09:44.149Z,102462.61
2019-03-28T03:12:12.609Z,102465.53
2019-03-28T03:14:41.102Z,102467.20
2019-03-28T03:17:09.541Z,102465.70
2019-03-28T03:19:38.085Z,102453.64
2019-03-28T03:22:06.514Z,102461.89
2019-03-28T03:24:35.008Z,102456.66
2019-03-28T03:27:03.464Z,102463.03
2019-03-28T03:29:31.950Z,102460.06
2019-03-28T03:32:00.397Z,102465.58
2019-03-28T03:34:28.917Z,102466.90
2019-03-28T03:36:57.364Z,102468.84
2019-03-28T03:39:25.898Z,102465.58
2019-03-28T03:41:54.424Z,102469.98
2019-03-28T03:44:22.908Z,102463.97
2019-03-28T03:46:51.381Z,102471.58
2019-03-28T03:49:19.843Z,102461.05
2019-03-28T03:51:48.314Z,102461.31
2019-03-28T03:54:16.808Z,102459.86
2019-03-28T03:56:45.266Z,102463.91
2019-03-28T03:59:13.754Z,102464.47
2019-03-28T04:01:42.346Z,102466.78
2019-03-28T04:04:10.780Z,102467.13
2019-03-28T04:06:39.242Z,102468.58
2019-03-28T04:09:08.082Z,102470.21
2019-03-28T04:11:36.624Z,102472.78
2019-03-28T04:14:05.260Z,102470.28
2019-03-28T04:16:33.743Z,102473.02
2019-03-28T04:19:02.215Z,102479.63
2019-03-28T04:21:30.677Z,102469.45
2019-03-28T04:23:59.155Z,102475.65
2019-03-28T04:26:27.610Z,102474.39
2019-03-28T04:28:56.281Z,102483.25
2019-03-28T04:31:24.721Z,102483.66
2019-03-28T04:33:53.231Z,102485.26
2019-03-28T04:36:21.688Z,102483.23
2019-03-28T04:38:50.632Z,102484.30
2019-03-28T04:41:19.418Z,102484.83
2019-03-28T04:43:47.922Z,102488.94
2019-03-28T04:46:16.383Z,102493.88
2019-03-28T04:48:44.859Z,102500.42
2019-03-28T04:51:13.323Z,102508.89
2019-03-28T04:53:41.905Z,102507.63
2019-03-28T04:56:10.381Z,102507.63
2019-03-28T04:58:44.283Z,102513.70
2019-03-28T05:01:09.129Z,102509.00
2019-03-28T05:03:37.630Z,102511.91
2019-03-28T05:06:06.196Z,102508.92
2019-03-28T05:08:34.638Z,102505.50
2019-03-28T05:11:03.394Z,102504.25
2019-03-28T05:13:31.855Z,102507.40
2019-03-28T05:16:00.370Z,102510.81
2019-03-28T05:18:28.807Z,102508.34
2019-03-28T05:20:57.316Z,102515.41
2019-03-28T05:23:25.794Z,102519.59
2019-03-28T05:25:54.293Z,102516.90
2019-03-28T05:28:22.849Z,102524.04
2019-03-28T05:30:51.343Z,102527.96
2019-03-28T05:33:19.811Z,102524.09
2019-03-28T05:35:48.275Z,102520.41
2019-03-28T05:38:16.739Z,102532.49
2019-03-28T05:40:45.295Z,102527.63
2019-03-28T05:43:13.761Z,102535.41
2019-03-28T05:45:42.243Z,102532.42
2019-03-28T05:48:10.691Z,102532.14
2019-03-28T05:50:39.149Z,102530.39
2019-03-28T05:53:07.674Z,102538.07
2019-03-28T05:55:36.425Z,102541.77
2019-03-28T05:58:04.879Z,102545.99
2019-03-28T06:00:34.130Z,102550.20
2019-03-28T06:03:02.618Z,102550.91
2019-03-28T06:05:31.090Z,102549.52
2019-03-28T06:07:59.588Z,102551.87
2019-03-28T06:10:28.112Z,102550.52
2019-03-28T06:12:56.868Z,102558.42
2019-03-28T06:15:25.346Z,102564.81
2019-03-28T06:17:54.364Z,102564.92
2019-03-28T06:20:23.092Z,102570.73
2019-03-28T06:22:51.543Z,102572.54
2019-03-28T06:25:20.088Z,102571.66
2019-03-28T06:27:48.648Z,102578.31
2019-03-28T06:30:18.347Z,102583.30
2019-03-28T06:32:46.927Z,102584.97
2019-03-28T06:35:15.408Z,102584.24
2019-03-28T06:37:43.929Z,102591.59
2019-03-28T06:40:12.629Z,102593.91
2019-03-28T06:42:41.206Z,102596.05
2019-03-28T06:45:09.854Z,102598.78
2019-03-28T06:47:38.301Z,102600.80
2019-03-28T06:50:07.931Z,102596.05
2019-03-28T06:52:36.371Z,102598.72
2019-03-28T06:55:05.897Z,102599.63
2019-03-28T06:57:34.365Z,102614.47
2019-03-28T07:00:03.069Z,102606.83
2019-03-28T07:02:31.600Z,102610.83
2019-03-28T07:05:00.072Z,102607.14
2019-03-28T07:07:28.551Z,102611.77
2019-03-28T07:09:57.149Z,102619.62
2019-03-28T07:12:25.676Z,102614.92
2019-03-28T07:14:54.356Z,102613.90
2019-03-28T07:17:23.007Z,102618.57
2019-03-28T07:19:51.494Z,102619.04
2019-03-28T07:22:19.985Z,102623.37
2019-03-28T07:24:48.481Z,102629.50
2019-03-28T07:27:17.382Z,102629.74
2019-03-28T07:29:51.125Z,102628.09
2019-03-28T07:32:16.269Z,102627.19
2019-03-28T07:34:44.795Z,102618.43
2019-03-28T07:37:13.273Z,102630.47
2019-03-28T07:39:41.746Z,102632.14
2019-03-28T07:42:10.197Z,102639.33
2019-03-28T07:44:38.696Z,102634.04
2019-03-28T07:47:07.147Z,102637.84
2019-03-28T07:49:37.597Z,102641.66
2019-03-28T07:52:05.906Z,102645.34
2019-03-28T07:54:34.388Z,102643.56
2019-03-28T07:57:02.841Z,102649.15
2019-03-28T07:59:31.333Z,102644.51
2019-03-28T08:01:59.800Z,102645.58
2019-03-28T08:04:28.311Z,102654.70
2019-03-28T08:06:56.824Z,102651.59
2019-03-28T08:09:36.065Z,102649.69
2019-03-28T08:11:55.548Z,102658.44
2019-03-28T08:14:24.023Z,102653.45
2019-03-28T08:16:53.020Z,102651.70
2019-03-28T08:19:21.778Z,102659.57
2019-03-28T08:21:50.241Z,102651.77
2019-03-28T08:24:18.701Z,102652.72
2019-03-28T08:26:47.228Z,102666.12
2019-03-28T08:29:15.729Z,102663.48
2019-03-28T08:31:46.069Z,102662.89
2019-03-28T08:34:14.661Z,102666.54
2019-03-28T08:36:43.704Z,102665.43
2019-03-28T08:39:12.531Z,102662.20
2019-03-28T08:41:40.989Z,102671.26
2019-03-28T08:44:10.667Z,102670.75
2019-03-28T08:46:39.485Z,102675.79
2019-03-28T08:49:08.153Z,102684.03
2019-03-28T08:51:36.613Z,102681.30
2019-03-28T08:54:05.148Z,102675.52
2019-03-28T08:56:33.606Z,102685.08
2019-03-28T08:59:02.064Z,102683.02
2019-03-28T09:01:30.551Z,102688.69
2019-03-28T09:03:59.062Z,102686.52
2019-03-28T09:06:27.540Z,102692.20
2019-03-28T09:08:56.020Z,102690.17
2019-03-28T09:11:24.476Z,102695.77
2019-03-28T09:13:53.000Z,102695.13
2019-03-28T09:16:21.467Z,102690.36
2019-03-28T09:18:50.057Z,102689.25
2019-03-28T09:21:18.487Z,102679.41
2019-03-28T09:23:46.993Z,102691.34
2019-03-28T09:26:15.462Z,102685.25
2019-03-28T09:28:43.939Z,102684.42
2019-03-28T09:31:19.947Z,102684.16
2019-03-28T09:33:42.872Z,102690.20
2019-03-28T09:36:11.453Z,102679.74
2019-03-28T09:38:40.100Z,102684.20
2019-03-28T09:41:08.643Z,102690.06
2019-03-28T09:43:37.118Z,102684.17
2019-03-28T09:46:05.891Z,102682.47
2019-03-28T09:48:34.383Z,102686.61
2019-03-28T09:51:02.833Z,102687.28
2019-03-28T09:53:31.350Z,102682.34
2019-03-28T09:55:59.794Z,102669.96
2019-03-28T09:58:28.308Z,102676.72
2019-03-28T10:01:02.558Z,102672.37
2019-03-28T10:03:26.993Z,102677.95
2019-03-28T10:05:55.457Z,102675.17
2019-03-28T10:08:23.941Z,102673.53
2019-03-28T10:10:52.755Z,102669.59
2019-03-28T10:13:21.232Z,102681.44
2019-03-28T10:15:49.699Z,102683.44
2019-03-28T10:18:18.173Z,102684.48
2019-03-28T10:20:46.723Z,102685.84
2019-03-28T10:23:15.264Z,102686.88
2019-03-28T10:25:43.742Z,102686.88
2019-03-28T10:28:12.254Z,102685.84
2019-03-28T10:30:44.910Z,102691.60
2019-03-28T10:33:13.602Z,102688.53
2019-03-28T10:35:42.287Z,102694.34
2019-03-28T10:38:10.780Z,102690.92
2019-03-28T10:40:39.272Z,102695.24
2019-03-28T10:43:08.080Z,102697.78
2019-03-28T10:45:36.523Z,102690.02
2019-03-28T10:48:05.385Z,102691.94
2019-03-28T10:50:42.461Z,102693.04
2019-03-28T10:53:04.038Z,102700.89
2019-03-28T10:55:32.485Z,102698.49
2019-03-28T10:58:01.016Z,102696.55
2019-03-28T11:00:29.493Z,102700.83
2019-03-28T11:02:58.061Z,102697.03
2019-03-28T11:05:26.566Z,102697.31
2019-03-28T11:07:55.078Z,102694.64
2019-03-28T11:10:23.510Z,102702.80
2019-03-28T11:12:52.027Z,102701.15
2019-03-28T11:15:20.473Z,102698.34
2019-03-28T11:17:48.982Z,102702.39
2019-03-28T11:20:17.500Z,102706.18
2019-03-28T11:22:45.999Z,102705.86
2019-03-28T11:25:14.666Z,102711.87
2019-03-28T11:27:43.237Z,102715.75
2019-03-28T11:30:12.583Z,102709.08
2019-03-28T11:32:41.099Z,102712.55
2019-03-28T11:35:09.914Z,102708.05
2019-03-28T11:37:38.447Z,102711.56
2019-03-28T11:40:09.671Z,102716.27
2019-03-28T11:42:38.168Z,102721.86
2019-03-28T11:45:09.552Z,102720.44
2019-03-28T11:47:37.986Z,102723.56
2019-03-28T11:50:08.000Z,102729.52
2019-03-28T11:52:36.776Z,102726.28
2019-03-28T11:55:07.393Z,102733.82
2019-03-28T11:57:37.453Z,102731.47
2019-03-28T12:00:12.011Z,102740.88
2019-03-28T12:02:40.485Z,102737.41
2019-03-28T12:05:08.954Z,102737.00
2019-03-28T12:07:37.574Z,102735.23
2019-03-28T12:10:08.283Z,102738.69
2019-03-28T12:12:36.850Z,102742.80
2019-03-28T12:15:08.487Z,102739.67
2019-03-28T12:17:36.998Z,102740.55
2019-03-28T12:20:07.624Z,102738.20
2019-03-28T12:22:36.119Z,102742.69
2019-03-28T12:25:05.942Z,102738.58
2019-03-28T12:27:34.444Z,102741.13
2019-03-28T12:30:03.069Z,102738.34
2019-03-28T12:32:31.676Z,102736.23
2019-03-28T12:35:00.441Z,102732.89
2019-03-28T12:37:29.035Z,102739.70
2019-03-28T12:39:59.966Z,102737.27
2019-03-28T12:42:27.778Z,102733.25
2019-03-28T12:44:57.434Z,102738.97
2019-03-28T12:47:26.419Z,102733.38
2019-03-28T12:49:54.889Z,102733.47
2019-03-28T12:52:23.391Z,102735.45
2019-03-28T12:54:51.853Z,102727.50
2019-03-28T12:57:20.399Z,102736.09
2019-03-28T12:59:48.871Z,102736.28
2019-03-28T13:02:28.166Z,102739.27
2019-03-28T13:04:47.581Z,102745.48
2019-03-28T13:07:16.044Z,102743.05
2019-03-28T13:09:44.563Z,102749.11
2019-03-28T13:12:13.099Z,102743.96
2019-03-28T13:14:41.611Z,102743.80
2019-03-28T13:17:10.107Z,102743.63
2019-03-28T13:19:38.588Z,102746.52
2019-03-28T13:22:07.096Z,102751.51
2019-03-28T13:24:35.597Z,102747.09
2019-03-28T13:27:04.207Z,102756.05
2019-03-28T13:29:32.753Z,102754.02
2019-03-28T13:32:01.290Z,102753.81
2019-03-28T13:34:29.694Z,102754.70
2019-03-28T13:36:58.288Z,102752.06
2019-03-28T13:39:26.732Z,102746.40
2019-03-28T13:41:57.489Z,102749.96
2019-03-28T13:44:25.965Z,102757.52
2019-03-28T13:46:54.452Z,102747.90
2019-03-28T13:49:22.938Z,102744.77
2019-03-28T13:51:51.459Z,102751.95
2019-03-28T13:54:23.024Z,102751.23
2019-03-28T13:56:50.123Z,102749.74
2019-03-28T13:59:18.592Z,102751.23
2019-03-28T14:01:47.115Z,102744.56
2019-03-28T14:04:15.588Z,102743.43
2019-03-28T14:06:44.094Z,102738.67
2019-03-28T14:09:12.557Z,102740.34
2019-03-28T14:11:41.203Z,102731.91
2019-03-28T14:14:09.671Z,102734.95
2019-03-28T14:16:38.187Z,102731.22
2019-03-28T14:19:06.662Z,102737.56
2019-03-28T14:21:35.164Z,102744.45
2019-03-28T14:24:03.658Z,102740.05
2019-03-28T14:26:32.132Z,102738.59
2019-03-28T14:29:00.709Z,102734.12
2019-03-28T14:31:29.236Z,102736.47
2019-03-28T14:33:57.679Z,102741.77
2019-03-28T14:36:26.287Z,102741.73
2019-03-28T14:38:54.735Z,102744.08
2019-03-28T14:41:23.254Z,102745.45
2019-03-28T14:43:51.695Z,102747.39
2019-03-28T14:46:20.216Z,102752.59
2019-03-28T14:48:48.660Z,102754.79
2019-03-28T14:51:17.177Z,102756.16
2019-03-28T14:53:45.858Z,102755.55
2019-03-28T14:56:14.817Z,102757.45
2019-03-28T14:58:43.747Z,102762.31
2019-03-28T15:01:12.297Z,102756.92
2019-03-28T15:03:40.874Z,102759.47
2019-03-28T15:06:09.408Z,102756.52
2019-03-28T15:08:37.909Z,102756.28
2019-03-28T15:11:06.424Z,102755.02
2019-03-28T15:13:34.909Z,102755.05
2019-03-28T15:16:03.415Z,102751.13
2019-03-28T15:18:31.935Z,102742.77
2019-03-28T15:21:00.427Z,102737.54
2019-03-28T15:23:28.931Z,102734.86
2019-03-28T15:25:57.487Z,102732.45
2019-03-28T15:28:25.982Z,102736.61
2019-03-28T15:30:54.439Z,102742.09
2019-03-28T15:33:22.982Z,102728.30
2019-03-28T15:35:51.673Z,102733.34
2019-03-28T15:38:20.204Z,102734.05
2019-03-28T15:40:49.051Z,102742.00
2019-03-28T15:43:17.523Z,102741.14
2019-03-28T15:45:46.032Z,102731.34
2019-03-28T15:48:14.564Z,102734.33
2019-03-28T15:50:43.481Z,102737.17
2019-03-28T15:53:11.961Z,102744.53
2019-03-28T15:55:40.450Z,102749.20
2019-03-28T15:58:22.163Z,102747.77
2019-03-28T16:00:39.129Z,102753.30
2019-03-28T16:03:07.934Z,102753.94
2019-03-28T16:05:36.991Z,102751.48
2019-03-28T16:08:05.518Z,102755.09
2019-03-28T16:10:34.221Z,102765.42
2019-03-28T16:13:02.688Z,102765.78
2019-03-28T16:15:31.347Z,102763.60
2019-03-28T16:17:59.899Z,102772.24
2019-03-28T16:20:28.361Z,102764.26
2019-03-28T16:22:56.903Z,102763.19
2019-03-28T16:25:25.507Z,102757.28
2019-03-28T16:27:54.025Z,102762.37
2019-03-28T16:30:34.297Z,102757.32
2019-03-28T16:33:02.840Z,102758.56
2019-03-28T16:35:31.528Z,102765.02
2019-03-28T16:38:00.022Z,102768.83
2019-03-28T16:40:28.500Z,102761.32
2019-03-28T16:42:56.998Z,102772.55
2019-03-28T16:45:25.592Z,102773.23
2019-03-28T16:47:54.098Z,102772.24
2019-03-28T16:50:22.621Z,102779.61
2019-03-28T16:52:51.231Z,102769.55
2019-03-28T16:55:26.144Z,102770.97
2019-03-28T16:57:49.930Z,102777.78
2019-03-28T17:00:18.725Z,102773.44
2019-03-28T17:02:47.307Z,102776.10
2019-03-28T17:05:15.866Z,102776.34
2019-03-28T17:07:45.401Z,102772.45
2019-03-28T17:10:19.763Z,102771.88
2019-03-28T17:12:48.254Z,102767.92
2019-03-28T17:15:17.690Z,102772.63
2019-03-28T17:17:46.413Z,102774.55
2019-03-28T17:20:15.088Z,102775.61
2019-03-28T17:22:43.745Z,102784.55
2019-03-28T17:25:12.504Z,102776.17
2019-03-28T17:27:40.986Z,102779.37
2019-03-28T17:30:09.718Z,102781.77
2019-03-28T17:32:38.864Z,102779.38
2019-03-28T17:35:07.591Z,102787.48
2019-03-28T17:37:36.086Z,102789.08
2019-03-28T17:40:06.723Z,102796.05
2019-03-28T17:42:35.217Z,102786.30
2019-03-28T17:45:05.982Z,102791.30
2019-03-28T17:47:34.617Z,102790.28
2019-03-28T17:50:03.965Z,102800.47
2019-03-28T17:52:32.469Z,102801.45
2019-03-28T17:55:00.921Z,102802.95
2019-03-28T17:57:29.406Z,102804.56
2019-03-28T17:59:57.869Z,102810.19
2019-03-28T18:02:26.654Z,102812.24
2019-03-28T18:05:08.203Z,102808.61
2019-03-28T18:07:25.306Z,102808.69
2019-03-28T18:09:53.856Z,102813.44
2019-03-28T18:12:22.513Z,102805.80
2019-03-28T18:14:50.983Z,102797.27
2019-03-28T18:17:19.447Z,102805.13
2019-03-28T18:19:47.940Z,102802.98
2019-03-28T18:22:16.731Z,102807.88
2019-03-28T18:24:45.334Z,102807.30
2019-03-28T18:27:13.847Z,102809.37
2019-03-28T18:29:42.361Z,102811.45
2019-03-28T18:32:10.992Z,102809.30
2019-03-28T18:34:39.460Z,102819.49
2019-03-28T18:37:08.234Z,102819.23
2019-03-28T18:39:36.720Z,102822.28
2019-03-28T18:42:05.494Z,102822.16
2019-03-28T18:44:33.962Z,102825.20
2019-03-28T18:47:02.434Z,102826.44
2019-03-28T18:49:31.239Z,102832.45
2019-03-28T18:51:59.881Z,102829.30
2019-03-28T18:54:28.352Z,102826.80
2019-03-28T18:56:56.995Z,102826.22
2019-03-28T18:59:25.546Z,102832.98
2019-03-28T19:01:54.074Z,102834.92
2019-03-28T19:04:22.539Z,102837.74
2019-03-28T19:06:51.131Z,102836.37
2019-03-28T19:09:19.867Z,102836.16
2019-03-28T19:11:48.776Z,102833.91
2019-03-28T19:14:17.232Z,102838.50
2019-03-28T19:16:48.298Z,102838.80
2019-03-28T19:19:17.670Z,102841.38
2019-03-28T19:21:46.331Z,102843.50
2019-03-28T19:24:16.800Z,102843.36
2019-03-28T19:26:45.446Z,102846.09
2019-03-28T19:29:13.943Z,102854.44
2019-03-28T19:31:43.446Z,102848.73
2019-03-28T19:34:12.045Z,102856.23
2019-03-28T19:36:40.965Z,102864.28
2019-03-28T19:39:11.087Z,102863.64
2019-03-28T19:41:39.550Z,102861.38
2019-03-28T19:44:08.193Z,102865.31
2019-03-28T19:46:36.673Z,102864.61
2019-03-28T19:49:05.208Z,102869.78
2019-03-28T19:51:34.065Z,102867.35
2019-03-28T19:54:02.941Z,102873.49
2019-03-28T19:56:31.458Z,102872.17
2019-03-28T19:58:59.899Z,102869.69
2019-03-28T20:01:28.401Z,102872.53
2019-03-28T20:03:57.010Z,102871.98
2019-03-28T20:06:25.699Z,102878.09
2019-03-28T20:08:54.245Z,102876.05
2019-03-28T20:11:22.790Z,102871.91
2019-03-28T20:13:51.578Z,102867.75
2019-03-28T20:16:20.161Z,102867.97
2019-03-28T20:18:48.669Z,102867.18
2019-03-28T20:21:17.201Z,102866.86
2019-03-28T20:23:45.814Z,102867.42
2019-03-28T20:26:14.853Z,102865.13
2019-03-28T20:28:43.404Z,102867.42
2019-03-28T20:31:11.888Z,102864.86
2019-03-28T20:33:40.369Z,102867.29
2019-03-28T20:36:35.694Z,102870.13
2019-03-28T20:38:39.145Z,102874.10
2019-03-28T20:41:07.787Z,102868.04
2019-03-28T20:43:36.268Z,102874.38
2019-03-28T20:46:04.873Z,102874.05
2019-03-28T20:48:33.357Z,102871.53
2019-03-28T20:51:03.444Z,102872.62
2019-03-28T20:53:32.106Z,102865.25
2019-03-28T20:56:00.643Z,102868.80
2019-03-28T20:58:29.225Z,102872.68
2019-03-28T21:00:58.232Z,102872.09
2019-03-28T21:03:26.834Z,102872.98
2019-03-28T21:05:55.340Z,102870.42
2019-03-28T21:08:23.817Z,102874.97
2019-03-28T21:10:52.331Z,102860.75
2019-03-28T21:13:20.846Z,102862.90
2019-03-28T21:15:49.335Z,102866.23
2019-03-28T21:18:17.852Z,102865.33
2019-03-28T21:20:46.350Z,102866.92
2019-03-28T21:23:14.794Z,102866.56
2019-03-28T21:25:43.309Z,102866.61
2019-03-28T21:28:13.778Z,102865.47
2019-03-28T21:30:47.594Z,102870.86
2019-03-28T21:33:14.806Z,102866.67
2019-03-28T21:35:42.367Z,102868.82
2019-03-28T21:38:10.884Z,102864.13
2019-03-28T21:40:39.380Z,102861.53
2019-03-28T21:43:07.840Z,102858.80
2019-03-28T21:45:36.317Z,102865.44
2019-03-28T21:48:04.853Z,102875.05
2019-03-28T21:50:33.353Z,102869.27
2019-03-28T21:53:01.894Z,102871.53
2019-03-28T21:55:30.367Z,102875.39
2019-03-28T21:57:58.904Z,102872.62
2019-03-28T22:00:27.456Z,102873.34
2019-03-28T22:02:55.996Z,102867.81
2019-03-28T22:05:24.608Z,102869.58
2019-03-28T22:07:53.091Z,102865.19
2019-03-28T22:10:21.561Z,102869.55
2019-03-28T22:12:50.043Z,102865.16
2019-03-28T22:15:18.509Z,102873.48
2019-03-28T22:17:46.991Z,102860.61
2019-03-28T22:20:15.449Z,102859.21
2019-03-28T22:22:43.975Z,102861.00
2019-03-28T22:25:12.435Z,102859.72
2019-03-28T22:27:40.901Z,102859.72
2019-03-28T22:30:09.908Z,102868.20
2019-03-28T22:32:38.375Z,102864.49
2019-03-28T22:35:07.925Z,102867.28
2019-03-28T22:37:36.497Z,102860.38
2019-03-28T22:40:07.577Z,102861.25
2019-03-28T22:42:36.066Z,102869.36
2019-03-28T22:45:06.974Z,102863.96
2019-03-28T22:47:35.835Z,102867.28
2019-03-28T22:50:06.945Z,102859.69
2019-03-28T22:52:35.536Z,102855.52
2019-03-28T22:55:07.460Z,102852.48
2019-03-28T22:57:35.959Z,102858.51
2019-03-28T23:00:07.608Z,102863.43
2019-03-28T23:02:36.260Z,102859.63
2019-03-28T23:05:05.873Z,102858.51
2019-03-28T23:07:34.385Z,102865.63
2019-03-28T23:10:03.323Z,102868.15
2019-03-28T23:12:31.840Z,102864.66
2019-03-28T23:15:00.395Z,102863.87
2019-03-28T23:17:29.438Z,102864.77
2019-03-28T23:19:58.117Z,102871.39
2019-03-28T23:22:26.715Z,102875.20
2019-03-28T23:24:55.223Z,102872.20
2019-03-28T23:27:23.716Z,102870.47
2019-03-28T23:29:52.283Z,102872.91
2019-03-28T23:32:20.906Z,102877.01
2019-03-28T23:34:49.434Z,102880.84
2019-03-28T23:37:24.673Z,102879.38
2019-03-28T23:39:48.184Z,102878.44
2019-03-28T23:42:17.821Z,102875.86
2019-03-28T23:44:46.452Z,102873.69
2019-03-28T23:47:14.915Z,102873.41
2019-03-28T23:49:43.385Z,102874.14
2019-03-28T23:52:11.876Z,102874.80
2019-03-28T23:54:40.344Z,102877.82
2019-03-28T23:57:08.824Z,102872.09
2019-03-28T23:59:37.644Z,102875.20
